Weather History For Prescott AZ
This page updates 5 minutes after midnight. GMT -7
Station: KPRC0 Rows: 26
| Year | Date | Temp (°F) | Tmin (°F) | Tmax (°F) | RH% | Prcp | Snow | Wind | Gust | Pres | Sun | Cloud |
|---|---|---|---|---|---|---|---|---|---|---|---|---|
| 2000 | 2000-04-28 | 66.7 | 53.1 | 77.0 | 23 | — | — | 19.0 | — | 29.76 | — | 0 |
| 2001 | 2001-04-28 | 61.2 | 42.1 | 75.9 | 36 | — | — | 13.2 | — | 29.85 | — | 1 |
| 2002 | 2002-04-28 | 57.6 | 39.2 | 73.4 | 35 | — | — | 10.1 | — | 30.00 | — | 0 |
| 2003 | 2003-04-28 | 57.4 | 42.8 | 69.8 | 26 | — | — | 17.2 | — | 29.81 | — | 0 |
| 2004 | 2004-04-28 | 66.7 | 55.4 | 77.0 | 22 | — | — | 23.3 | — | 29.66 | — | 0 |
| 2005 | 2005-04-28 | 48.0 | 41.0 | 52.0 | 62 | — | — | 15.2 | — | 29.87 | — | 3 |
| 2006 | 2006-04-28 | 53.4 | 42.1 | 66.0 | 57 | — | — | 17.8 | — | 29.87 | — | 4 |
| 2007 | 2007-04-28 | 67.3 | 46.0 | 87.1 | 24 | 0.0 | — | 9.3 | — | 29.94 | — | 1 |
| 2008 | 2008-04-28 | 58.8 | 36.0 | 77.0 | 16 | 0.0 | — | 7.6 | — | 30.04 | — | 0 |
| 2009 | 2009-04-28 | 59.4 | 50.0 | 70.0 | 21 | 0.0 | — | 13.6 | — | 29.84 | — | 0 |
| 2010 | 2010-04-28 | 62.4 | 55.0 | 70.0 | 26 | 0.0 | — | 26.3 | — | 29.65 | — | 1 |
| 2011 | 2011-04-28 | 59.4 | 37.9 | 75.9 | 24 | 0.0 | — | 12.5 | — | 29.93 | — | 0 |
| 2012 | 2012-04-28 | 61.0 | 45.0 | 75.0 | 33 | 0.0 | — | 7.7 | — | 29.77 | — | 0 |
| 2013 | 2013-04-28 | 65.8 | 45.0 | 82.9 | 14 | 0.0 | — | 10.0 | — | 29.87 | — | 0 |
| 2014 | 2014-04-28 | 56.8 | 44.1 | 69.1 | 26 | 0.0 | — | 19.2 | — | 29.88 | — | 0 |
| 2015 | 2015-04-28 | 61.0 | 44.1 | 75.0 | 39 | 0.0 | — | 7.1 | — | 29.97 | — | — |
| 2016 | 2016-04-28 | 47.1 | 41.0 | 53.1 | 64 | — | — | 14.5 | — | 29.62 | — | — |
| 2017 | 2017-04-28 | 52.5 | 39.0 | 64.9 | 27 | 0.0 | — | 23.1 | — | 29.63 | — | 1 |
| 2018 | 2018-04-28 | 67.1 | 50.0 | 79.0 | 17 | 0.0 | — | 18.9 | — | 29.74 | — | 0 |
| 2019 | 2019-04-28 | 65.8 | 51.1 | 79.0 | 26 | 0.0 | — | 15.8 | — | 29.74 | — | 0 |
| 2020 | 2020-04-28 | 68.0 | 48.9 | 84.0 | 26 | 0.0 | — | 9.6 | — | 29.96 | — | 0 |
| 2021 | 2021-04-28 | 50.4 | 35.1 | 66.0 | 58 | 0.0 | — | 15.3 | — | 29.94 | — | — |
| 2022 | 2022-04-28 | 58.5 | 41.0 | 71.1 | 24 | 0.0 | — | 17.2 | — | 29.77 | — | 0 |
| 2023 | 2023-04-28 | 63.5 | 46.0 | 78.1 | 24 | 0.0 | — | 8.9 | — | 29.91 | — | 0 |
| 2024 | 2024-04-28 | 54.3 | 37.9 | 66.9 | 42 | 0.0 | — | 10.8 | — | 29.90 | — | 2 |
| 2025 | 2025-04-28 | 50.5 | 34.0 | 64.9 | 34 | 0.0 | — | 8.6 | — | 29.91 | — | 0 |